createdAt,value
2022-09-30T00:01:14.485Z,9.12
2022-09-30T00:03:41.134Z,9.13
2022-09-30T00:06:09.117Z,9.10
2022-09-30T00:08:39.046Z,9.12
2022-09-30T00:11:14.965Z,9.16
2022-09-30T00:13:41.630Z,9.16
2022-09-30T00:16:10.268Z,9.12
2022-09-30T00:18:38.224Z,9.11
2022-09-30T00:21:06.236Z,9.10
2022-09-30T00:23:33.138Z,9.08
2022-09-30T00:26:01.628Z,9.07
2022-09-30T00:28:29.365Z,9.08
2022-09-30T00:31:05.631Z,9.10
2022-09-30T00:33:32.844Z,9.10
2022-09-30T00:36:00.361Z,9.14
2022-09-30T00:38:27.251Z,9.15
2022-09-30T00:40:54.394Z,9.17
2022-09-30T00:43:41.238Z,9.16
2022-09-30T00:46:19.374Z,9.14
2022-09-30T00:48:53.988Z,9.14
2022-09-30T00:51:31.461Z,9.14
2022-09-30T00:54:03.129Z,9.14
2022-09-30T00:56:34.575Z,9.14
2022-09-30T00:59:04.937Z,9.13
2022-09-30T01:01:32.240Z,9.14
2022-09-30T01:04:06.172Z,9.15
2022-09-30T01:06:32.773Z,9.15
2022-09-30T01:09:01.180Z,9.16
2022-09-30T01:11:28.993Z,9.14
2022-09-30T01:14:00.579Z,9.14
2022-09-30T01:16:40.091Z,9.16
2022-09-30T01:19:40.735Z,9.14
2022-09-30T01:22:19.559Z,9.10
2022-09-30T01:25:10.377Z,9.13
2022-09-30T01:27:48.328Z,9.12
2022-09-30T01:30:26.412Z,9.15
2022-09-30T01:32:59.108Z,9.15
2022-09-30T01:36:00.079Z,9.14
2022-09-30T01:38:30.869Z,9.14
2022-09-30T01:41:09.144Z,9.12
2022-09-30T01:43:53.280Z,9.10
2022-09-30T01:47:00.293Z,9.12
2022-09-30T01:49:42.184Z,9.14
2022-09-30T01:52:11.009Z,9.13
2022-09-30T01:54:50.125Z,9.13
2022-09-30T01:57:26.111Z,9.13
2022-09-30T02:00:00.589Z,9.12
2022-09-30T02:02:31.080Z,9.13
2022-09-30T02:05:10.225Z,9.16
2022-09-30T02:07:41.998Z,9.15
2022-09-30T02:10:14.385Z,9.14
2022-09-30T02:12:48.267Z,9.15
2022-09-30T02:15:31.053Z,9.14
2022-09-30T02:18:12.542Z,9.12
2022-09-30T02:20:42.112Z,9.09
2022-09-30T02:23:16.284Z,9.08
2022-09-30T02:25:47.366Z,9.11
2022-09-30T02:28:22.403Z,9.11
2022-09-30T02:30:53.693Z,9.10
2022-09-30T02:33:28.501Z,9.07
2022-09-30T02:35:58.366Z,9.04
2022-09-30T02:38:32.202Z,9.01
2022-09-30T02:41:06.655Z,8.96
2022-09-30T02:43:34.355Z,8.95
2022-09-30T02:46:24.035Z,8.97
2022-09-30T02:49:04.651Z,8.96
2022-09-30T02:51:34.131Z,8.93
2022-09-30T02:54:19.198Z,8.96
2022-09-30T02:56:56.805Z,8.96
2022-09-30T02:59:26.049Z,8.93
2022-09-30T03:01:52.946Z,8.93
2022-09-30T03:04:24.157Z,8.91
2022-09-30T03:06:51.507Z,8.92
2022-09-30T03:09:18.261Z,8.90
2022-09-30T03:11:47.813Z,8.92
2022-09-30T03:14:32.193Z,8.90
2022-09-30T03:17:17.438Z,8.87
2022-09-30T03:19:46.690Z,8.85
2022-09-30T03:22:25.319Z,8.84
2022-09-30T03:25:09.794Z,8.83
2022-09-30T03:28:00.447Z,8.82
2022-09-30T03:30:28.112Z,8.81
2022-09-30T03:33:08.367Z,8.83
2022-09-30T03:35:47.576Z,8.84
2022-09-30T03:38:26.345Z,8.85
2022-09-30T03:41:03.395Z,8.83
2022-09-30T03:44:02.234Z,8.84
2022-09-30T03:46:43.877Z,8.82
2022-09-30T03:49:23.411Z,8.85
2022-09-30T03:51:51.144Z,8.85
2022-09-30T03:54:17.963Z,8.82
2022-09-30T03:56:44.675Z,8.83
2022-09-30T03:59:28.031Z,8.85
2022-09-30T04:01:57.133Z,8.85
2022-09-30T04:04:23.991Z,8.84
2022-09-30T04:06:51.143Z,8.87
2022-09-30T04:09:17.810Z,8.99
2022-09-30T04:11:44.563Z,9.01
2022-09-30T04:14:11.208Z,8.94
2022-09-30T04:16:37.983Z,8.94
2022-09-30T04:19:04.769Z,8.89
2022-09-30T04:21:31.437Z,8.90
2022-09-30T04:23:58.040Z,8.92
2022-09-30T04:26:24.671Z,8.92
2022-09-30T04:28:52.566Z,8.92
2022-09-30T04:31:21.462Z,8.90
2022-09-30T04:33:48.220Z,8.85
2022-09-30T04:36:14.932Z,8.84
2022-09-30T04:38:41.615Z,8.87
2022-09-30T04:41:11.070Z,8.87
2022-09-30T04:43:37.696Z,8.81
2022-09-30T04:46:04.842Z,8.81
2022-09-30T04:48:31.492Z,8.78
2022-09-30T04:51:00.188Z,8.80
2022-09-30T04:53:26.939Z,8.79
2022-09-30T04:55:59.886Z,8.79
2022-09-30T04:58:27.179Z,8.80
2022-09-30T05:01:10.115Z,8.77
2022-09-30T05:03:36.950Z,8.78
2022-09-30T05:06:05.157Z,8.78
2022-09-30T05:08:35.192Z,8.79
2022-09-30T05:11:09.605Z,8.79
2022-09-30T05:13:39.851Z,8.74
2022-09-30T05:16:07.662Z,8.75
2022-09-30T05:18:35.300Z,8.76
2022-09-30T05:21:03.205Z,8.78
2022-09-30T05:23:31.508Z,8.81
2022-09-30T05:25:59.146Z,8.82
2022-09-30T05:28:26.070Z,8.84
2022-09-30T05:31:02.364Z,8.85
2022-09-30T05:33:30.023Z,8.85
2022-09-30T05:36:02.043Z,8.87
2022-09-30T05:38:28.669Z,8.92
2022-09-30T05:40:55.672Z,8.95
2022-09-30T05:43:22.484Z,8.94
2022-09-30T05:45:53.473Z,8.97
2022-09-30T05:48:20.485Z,9.00
2022-09-30T05:50:51.700Z,9.05
2022-09-30T05:53:18.773Z,9.09
2022-09-30T05:55:47.559Z,9.09
2022-09-30T05:58:15.557Z,9.12
2022-09-30T06:00:43.558Z,9.14
2022-09-30T06:03:10.775Z,9.14
2022-09-30T06:05:38.006Z,9.13
2022-09-30T06:08:07.219Z,9.15
2022-09-30T06:10:35.502Z,9.22
2022-09-30T06:13:05.499Z,9.25
2022-09-30T06:15:32.650Z,9.26
2022-09-30T06:17:59.292Z,9.28
2022-09-30T06:20:26.175Z,9.34
2022-09-30T06:22:52.789Z,9.38
2022-09-30T06:25:19.411Z,9.38
2022-09-30T06:27:49.062Z,9.37
2022-09-30T06:30:15.931Z,9.38
2022-09-30T06:32:42.665Z,9.36
2022-09-30T06:35:10.581Z,9.34
2022-09-30T06:37:38.010Z,9.40
2022-09-30T06:40:06.371Z,9.43
2022-09-30T06:42:33.984Z,9.46
2022-09-30T06:45:00.709Z,9.54
2022-09-30T06:47:27.501Z,9.63
2022-09-30T06:49:58.724Z,9.66
2022-09-30T06:52:27.132Z,9.68
2022-09-30T06:54:56.742Z,9.69
2022-09-30T06:57:26.814Z,9.77
2022-09-30T06:59:54.633Z,9.82
2022-09-30T07:02:22.242Z,9.90
2022-09-30T07:04:49.160Z,9.90
2022-09-30T07:07:15.915Z,9.92
2022-09-30T07:09:43.464Z,9.95
2022-09-30T07:12:10.576Z,10.00
2022-09-30T07:14:37.318Z,10.02
2022-09-30T07:17:06.163Z,10.03
2022-09-30T07:19:34.520Z,10.02
2022-09-30T07:22:22.268Z,10.06
2022-09-30T07:24:48.985Z,10.06
2022-09-30T07:27:16.093Z,10.07
2022-09-30T07:30:07.614Z,10.01
2022-09-30T07:32:31.115Z,10.00
2022-09-30T07:34:57.833Z,10.07
2022-09-30T07:37:26.077Z,10.16
2022-09-30T07:39:53.232Z,10.26
2022-09-30T07:42:22.689Z,10.40
2022-09-30T07:44:52.305Z,10.48
2022-09-30T07:47:20.356Z,10.63
2022-09-30T07:49:47.478Z,10.71
2022-09-30T07:52:14.569Z,10.78
2022-09-30T07:54:46.601Z,10.94
2022-09-30T07:57:15.131Z,11.06
2022-09-30T07:59:42.924Z,11.19
2022-09-30T08:02:15.747Z,11.40
2022-09-30T08:04:44.302Z,11.60
2022-09-30T08:07:11.799Z,11.84
2022-09-30T08:09:38.670Z,11.95
2022-09-30T08:12:05.552Z,12.10
2022-09-30T08:14:32.806Z,12.30
2022-09-30T08:17:00.626Z,12.37
2022-09-30T08:19:29.802Z,12.41
2022-09-30T08:21:57.199Z,12.51
2022-09-30T08:24:24.942Z,12.69
2022-09-30T08:26:52.427Z,12.86
2022-09-30T08:29:35.755Z,13.06
2022-09-30T08:32:06.147Z,13.33
2022-09-30T08:34:35.782Z,13.55
2022-09-30T08:37:07.792Z,13.80
2022-09-30T08:39:35.846Z,13.91
2022-09-30T08:42:35.625Z,14.19
2022-09-30T08:45:20.570Z,14.25
2022-09-30T08:47:57.191Z,14.23
2022-09-30T08:50:35.061Z,14.23
2022-09-30T08:53:05.562Z,14.12
2022-09-30T08:55:43.722Z,14.02
2022-09-30T08:58:22.291Z,13.70
2022-09-30T09:00:52.302Z,13.40
2022-09-30T09:03:20.563Z,13.21
2022-09-30T09:06:16.752Z,13.12
2022-09-30T09:08:58.628Z,13.23
2022-09-30T09:11:41.181Z,13.56
2022-09-30T09:14:22.848Z,13.84
2022-09-30T09:17:17.589Z,13.81
2022-09-30T09:20:17.921Z,13.81
2022-09-30T09:22:46.229Z,13.76
2022-09-30T09:25:16.072Z,13.80
2022-09-30T09:27:54.149Z,13.95
2022-09-30T09:30:23.906Z,14.06
2022-09-30T09:32:57.265Z,14.17
2022-09-30T09:35:35.698Z,14.17
2022-09-30T09:38:25.343Z,14.43
2022-09-30T09:40:57.787Z,14.24
2022-09-30T09:43:40.934Z,14.53
2022-09-30T09:46:15.410Z,14.65
2022-09-30T09:48:42.752Z,14.75
2022-09-30T09:51:34.277Z,14.78
2022-09-30T09:54:01.995Z,14.78
2022-09-30T09:56:32.523Z,14.99
2022-09-30T09:59:06.981Z,15.19
2022-09-30T10:01:35.612Z,15.14
2022-09-30T10:04:11.709Z,14.90
2022-09-30T10:07:14.862Z,15.02
2022-09-30T10:09:43.155Z,15.09
2022-09-30T10:12:09.763Z,15.15
2022-09-30T10:14:52.877Z,15.21
2022-09-30T10:17:29.524Z,15.41
2022-09-30T10:20:02.030Z,15.55
2022-09-30T10:22:31.975Z,15.68
2022-09-30T10:25:09.692Z,15.41
2022-09-30T10:27:36.477Z,15.27
2022-09-30T10:30:04.129Z,15.33
2022-09-30T10:32:32.421Z,15.16
2022-09-30T10:35:17.015Z,14.98
2022-09-30T10:37:52.670Z,14.97
2022-09-30T10:40:22.710Z,14.77
2022-09-30T10:42:49.479Z,14.93
2022-09-30T10:45:23.429Z,14.86
2022-09-30T10:47:53.927Z,14.91
2022-09-30T10:50:26.953Z,14.94
2022-09-30T10:53:15.921Z,14.84
2022-09-30T10:55:44.878Z,14.86
2022-09-30T10:58:43.868Z,14.76
2022-09-30T11:01:26.085Z,14.74
2022-09-30T11:04:03.481Z,14.72
2022-09-30T11:06:32.928Z,14.83
2022-09-30T11:09:11.796Z,14.83
2022-09-30T11:11:42.436Z,14.71
2022-09-30T11:14:38.843Z,14.70
2022-09-30T11:17:24.272Z,14.71
2022-09-30T11:20:17.656Z,14.68
2022-09-30T11:22:52.920Z,14.52
2022-09-30T11:25:27.079Z,14.53
2022-09-30T11:27:59.584Z,14.46
2022-09-30T11:30:49.485Z,14.46
2022-09-30T11:33:53.841Z,14.45
2022-09-30T11:36:49.600Z,14.40
2022-09-30T11:39:53.725Z,14.29
2022-09-30T11:42:38.653Z,14.14
2022-09-30T11:45:09.137Z,14.11
2022-09-30T11:47:48.028Z,13.95
2022-09-30T11:50:28.043Z,13.78
2022-09-30T11:53:07.411Z,13.92
2022-09-30T11:55:36.734Z,13.92
2022-09-30T11:58:22.286Z,13.86
2022-09-30T12:00:59.105Z,13.91
2022-09-30T12:03:31.708Z,13.85
2022-09-30T12:06:03.884Z,13.90
2022-09-30T12:08:36.558Z,13.83
2022-09-30T12:11:10.151Z,13.85
2022-09-30T12:13:42.169Z,13.76
2022-09-30T12:16:16.518Z,13.66
2022-09-30T12:18:51.366Z,13.69
2022-09-30T12:21:22.729Z,13.71
2022-09-30T12:24:10.319Z,13.71
2022-09-30T12:26:37.617Z,13.74
2022-09-30T12:29:36.560Z,13.71
2022-09-30T12:32:12.090Z,13.71
2022-09-30T12:35:06.185Z,13.60
2022-09-30T12:37:52.092Z,13.59
2022-09-30T12:40:40.206Z,13.66
2022-09-30T12:43:18.627Z,13.72
2022-09-30T12:46:03.057Z,13.78
2022-09-30T12:48:47.728Z,13.81
2022-09-30T12:51:31.400Z,13.86
2022-09-30T12:54:02.014Z,13.80
2022-09-30T12:56:30.755Z,13.76
2022-09-30T12:58:58.043Z,13.74
2022-09-30T13:01:35.063Z,13.74
2022-09-30T13:04:01.728Z,13.77
2022-09-30T13:06:48.336Z,13.76
2022-09-30T13:09:20.784Z,13.83
2022-09-30T13:12:12.424Z,13.85
2022-09-30T13:14:43.368Z,13.83
2022-09-30T13:17:13.482Z,13.77
2022-09-30T13:19:44.496Z,13.79
2022-09-30T13:22:20.315Z,13.78
2022-09-30T13:25:05.245Z,13.76
2022-09-30T13:27:42.509Z,13.69
2022-09-30T13:30:18.217Z,13.59
2022-09-30T13:33:02.399Z,13.62
2022-09-30T13:35:41.841Z,13.67
2022-09-30T13:38:14.244Z,13.64
2022-09-30T13:41:01.723Z,13.59
2022-09-30T13:43:35.819Z,13.51
2022-09-30T13:46:13.037Z,13.60
2022-09-30T13:48:43.599Z,13.77
2022-09-30T13:51:16.408Z,13.76
2022-09-30T13:53:51.278Z,13.74
2022-09-30T13:56:22.581Z,13.74
2022-09-30T13:59:11.131Z,13.67
2022-09-30T14:01:56.491Z,13.77
2022-09-30T14:04:41.462Z,13.79
2022-09-30T14:07:08.488Z,13.91
2022-09-30T14:10:03.364Z,13.83
2022-09-30T14:13:00.643Z,13.56
2022-09-30T14:15:47.144Z,13.54
2022-09-30T14:18:28.202Z,13.53
2022-09-30T14:20:54.779Z,13.49
2022-09-30T14:23:21.636Z,13.51
2022-09-30T14:26:28.036Z,13.53
2022-09-30T14:29:16.435Z,13.55
2022-09-30T14:31:45.850Z,13.48
2022-09-30T14:34:17.185Z,13.44
2022-09-30T14:36:44.852Z,13.46
2022-09-30T14:39:26.346Z,13.40
2022-09-30T14:41:57.824Z,13.39
2022-09-30T14:44:29.627Z,13.31
2022-09-30T14:47:01.451Z,13.23
2022-09-30T14:49:34.736Z,13.24
2022-09-30T14:52:03.430Z,13.19
2022-09-30T14:54:32.344Z,13.19
2022-09-30T14:57:02.361Z,13.14
2022-09-30T14:59:34.738Z,13.07
2022-09-30T15:02:16.277Z,13.05
2022-09-30T15:04:49.797Z,13.05
2022-09-30T15:07:16.489Z,13.00
2022-09-30T15:09:46.252Z,12.96
2022-09-30T15:12:22.784Z,12.93
2022-09-30T15:14:52.440Z,12.89
2022-09-30T15:17:22.263Z,12.90
2022-09-30T15:19:50.517Z,12.91
2022-09-30T15:22:19.156Z,12.92
2022-09-30T15:24:48.402Z,12.91
2022-09-30T15:27:19.296Z,12.91
2022-09-30T15:29:59.888Z,12.94
2022-09-30T15:32:36.662Z,12.92
2022-09-30T15:35:20.724Z,12.93
2022-09-30T15:37:48.177Z,12.93
2022-09-30T15:40:42.604Z,12.96
2022-09-30T15:43:11.906Z,12.90
2022-09-30T15:45:44.125Z,12.88
2022-09-30T15:48:25.785Z,12.83
2022-09-30T15:51:01.257Z,12.86
2022-09-30T15:53:36.997Z,12.80
2022-09-30T15:56:15.987Z,12.79
2022-09-30T15:59:01.726Z,12.77
2022-09-30T16:01:44.079Z,12.78
2022-09-30T16:04:17.347Z,12.74
2022-09-30T16:07:10.008Z,12.86
2022-09-30T16:09:41.796Z,12.76
2022-09-30T16:12:18.288Z,12.74
2022-09-30T16:14:49.414Z,12.67
2022-09-30T16:17:21.196Z,12.61
2022-09-30T16:19:57.598Z,12.67
2022-09-30T16:22:40.721Z,12.57
2022-09-30T16:25:21.515Z,12.59
2022-09-30T16:27:53.532Z,12.61
2022-09-30T16:30:20.723Z,12.55
2022-09-30T16:32:50.906Z,12.53
2022-09-30T16:35:23.445Z,12.50
2022-09-30T16:37:51.631Z,12.51
2022-09-30T16:40:25.467Z,12.44
2022-09-30T16:42:56.010Z,12.45
2022-09-30T16:45:22.958Z,12.41
2022-09-30T16:47:50.604Z,12.38
2022-09-30T16:50:30.004Z,12.33
2022-09-30T16:52:56.681Z,12.28
2022-09-30T16:55:25.320Z,12.24
2022-09-30T16:57:52.876Z,12.23
2022-09-30T17:00:19.573Z,12.24
2022-09-30T17:02:49.618Z,12.28
2022-09-30T17:05:19.104Z,12.30
2022-09-30T17:07:46.971Z,12.27
2022-09-30T17:10:20.082Z,12.26
2022-09-30T17:12:47.017Z,12.25
2022-09-30T17:15:13.795Z,12.25
2022-09-30T17:17:40.405Z,12.25
2022-09-30T17:20:07.462Z,12.23
2022-09-30T17:22:34.058Z,12.22
2022-09-30T17:25:00.783Z,12.23
2022-09-30T17:27:27.492Z,12.20
2022-09-30T17:29:54.130Z,12.18
2022-09-30T17:32:20.718Z,12.18
2022-09-30T17:34:47.308Z,12.18
2022-09-30T17:37:14.671Z,12.19
2022-09-30T17:39:41.377Z,12.18
2022-09-30T17:42:33.844Z,12.19
2022-09-30T17:45:00.768Z,12.19
2022-09-30T17:47:27.624Z,12.19
2022-09-30T17:49:54.276Z,12.13
2022-09-30T17:52:21.258Z,12.09
2022-09-30T17:54:52.225Z,12.11
2022-09-30T17:57:20.883Z,12.11
2022-09-30T17:59:47.600Z,12.13
2022-09-30T18:02:17.514Z,12.15
2022-09-30T18:04:44.894Z,12.15
2022-09-30T18:07:12.772Z,12.15
2022-09-30T18:09:39.929Z,12.12
2022-09-30T18:12:07.522Z,12.10
2022-09-30T18:14:38.403Z,12.10
2022-09-30T18:17:06.433Z,12.09
2022-09-30T18:19:34.719Z,12.12
2022-09-30T18:22:04.257Z,12.13
2022-09-30T18:24:49.392Z,12.10
2022-09-30T18:27:16.414Z,12.08
2022-09-30T18:29:43.024Z,12.06
2022-09-30T18:32:09.694Z,12.04
2022-09-30T18:34:36.454Z,12.07
2022-09-30T18:37:06.711Z,12.03
2022-09-30T18:39:38.216Z,11.99
2022-09-30T18:42:05.798Z,11.97
2022-09-30T18:44:37.604Z,11.95
2022-09-30T18:47:05.459Z,11.93
2022-09-30T18:49:32.645Z,11.90
2022-09-30T18:51:59.792Z,11.88
2022-09-30T18:54:26.408Z,11.87
2022-09-30T18:56:53.027Z,11.89
2022-09-30T18:59:22.050Z,11.87
2022-09-30T19:01:50.672Z,11.81
2022-09-30T19:04:17.387Z,11.83
2022-09-30T19:06:45.127Z,11.85
2022-09-30T19:09:11.727Z,11.86
2022-09-30T19:11:42.805Z,11.85
2022-09-30T19:14:12.458Z,11.83
2022-09-30T19:16:40.232Z,11.80
2022-09-30T19:19:10.493Z,11.83
2022-09-30T19:21:38.712Z,11.85
2022-09-30T19:24:07.131Z,11.86
2022-09-30T19:26:36.364Z,11.84
2022-09-30T19:29:09.662Z,11.84
2022-09-30T19:31:37.635Z,11.86
2022-09-30T19:34:05.401Z,11.90
2022-09-30T19:36:43.268Z,11.90
2022-09-30T19:39:13.859Z,11.91
2022-09-30T19:41:40.662Z,11.92
2022-09-30T19:44:07.415Z,11.90
2022-09-30T19:46:34.079Z,11.87
2022-09-30T19:49:00.673Z,11.87
2022-09-30T19:51:31.054Z,11.85
2022-09-30T19:54:06.272Z,11.78
2022-09-30T19:56:35.384Z,11.79
2022-09-30T19:59:02.568Z,11.81
2022-09-30T20:01:30.625Z,11.81
2022-09-30T20:04:04.791Z,11.81
2022-09-30T20:06:33.235Z,11.82
2022-09-30T20:09:02.401Z,11.83
2022-09-30T20:11:33.739Z,11.83
2022-09-30T20:14:20.504Z,11.80
2022-09-30T20:16:48.593Z,11.83
2022-09-30T20:19:16.501Z,11.84
2022-09-30T20:21:43.434Z,11.83
2022-09-30T20:24:11.733Z,11.81
2022-09-30T20:26:39.139Z,11.82
2022-09-30T20:29:09.079Z,11.83
2022-09-30T20:31:37.933Z,11.86
2022-09-30T20:34:05.043Z,11.91
2022-09-30T20:36:32.148Z,11.88
2022-09-30T20:39:02.670Z,11.87
2022-09-30T20:41:35.958Z,11.86
2022-09-30T20:44:07.811Z,11.84
2022-09-30T20:46:34.957Z,11.81
2022-09-30T20:49:02.854Z,11.82
2022-09-30T20:51:31.136Z,11.84
2022-09-30T20:53:59.692Z,11.85
2022-09-30T20:56:44.056Z,11.82
2022-09-30T20:59:15.816Z,11.85
2022-09-30T21:01:42.821Z,11.89
2022-09-30T21:04:09.612Z,11.90
2022-09-30T21:06:36.220Z,11.87
2022-09-30T21:09:03.752Z,11.87
2022-09-30T21:11:30.689Z,11.84
2022-09-30T21:13:58.191Z,11.83
2022-09-30T21:16:25.575Z,11.82
2022-09-30T21:18:53.326Z,11.84
2022-09-30T21:21:21.666Z,11.86
2022-09-30T21:23:48.838Z,11.83
2022-09-30T21:26:17.415Z,11.81
2022-09-30T21:28:49.360Z,11.78
2022-09-30T21:31:27.650Z,11.73
2022-09-30T21:33:59.042Z,11.75
2022-09-30T21:36:29.013Z,11.81
2022-09-30T21:39:01.391Z,11.75
2022-09-30T21:41:28.344Z,11.73
2022-09-30T21:43:55.788Z,11.77
2022-09-30T21:46:22.465Z,11.78
2022-09-30T21:48:49.655Z,11.79
2022-09-30T21:51:17.119Z,11.77
2022-09-30T21:53:43.789Z,11.73
2022-09-30T21:56:11.946Z,11.78
2022-09-30T21:58:38.986Z,11.76
2022-09-30T22:01:07.081Z,11.69
2022-09-30T22:03:37.898Z,11.72
2022-09-30T22:06:10.207Z,11.74
2022-09-30T22:08:40.790Z,11.78
2022-09-30T22:11:11.277Z,11.74
2022-09-30T22:13:40.860Z,11.74
2022-09-30T22:16:08.014Z,11.71
2022-09-30T22:18:35.643Z,11.72
2022-09-30T22:21:10.960Z,11.73
2022-09-30T22:23:38.003Z,11.75
2022-09-30T22:26:11.647Z,11.75
2022-09-30T22:28:39.195Z,11.76
2022-09-30T22:31:11.895Z,11.74
2022-09-30T22:33:56.965Z,11.71
2022-09-30T22:36:41.921Z,11.72
2022-09-30T22:39:08.711Z,11.72
2022-09-30T22:41:35.968Z,11.72
2022-09-30T22:44:02.735Z,11.73
2022-09-30T22:46:30.004Z,11.69
2022-09-30T22:48:59.418Z,11.68
2022-09-30T22:51:26.858Z,11.68
2022-09-30T22:53:53.544Z,11.70
2022-09-30T22:56:20.240Z,11.73
2022-09-30T22:58:47.246Z,11.75
2022-09-30T23:01:14.311Z,11.72
2022-09-30T23:03:42.471Z,11.74
2022-09-30T23:06:09.499Z,11.74
2022-09-30T23:08:44.659Z,11.73
2022-09-30T23:11:13.531Z,11.79
2022-09-30T23:13:40.220Z,11.75
2022-09-30T23:16:07.573Z,11.74
2022-09-30T23:18:34.644Z,11.74
2022-09-30T23:21:13.860Z,11.72
2022-09-30T23:23:40.689Z,11.72
2022-09-30T23:26:25.320Z,11.76
2022-09-30T23:29:13.171Z,11.74
2022-09-30T23:31:40.240Z,11.75
2022-09-30T23:34:07.930Z,11.74
2022-09-30T23:36:36.699Z,11.72
2022-09-30T23:39:12.725Z,11.71
2022-09-30T23:41:39.896Z,11.72
2022-09-30T23:44:06.921Z,11.74
2022-09-30T23:46:33.533Z,11.75
2022-09-30T23:49:00.171Z,11.76
2022-09-30T23:51:26.877Z,11.76
2022-09-30T23:53:53.572Z,11.73
2022-09-30T23:56:20.301Z,11.74
2022-09-30T23:58:47.560Z,11.75
